<?xml version="1.0" encoding="UTF-8" standalone="no" ?>
<gpx xmlns="http://www.topografix.com/GPX/1/1" xmlns:xsi="http://www.w3.org/2001/XMLSchema-instance" xsi:schemaLocation="http://www.topografix.com/GPX/1/1 http://www.topografix.com/GPX/1/1/gpx.xsd" version="1.1" creator="VisuGPX - https://www.visugpx.com">
  <metadata>
    <name>Single VTT descente</name>
    <desc><![CDATA[Vtt descente]]></desc>
  </metadata>
  <trk>
    <name><![CDATA[13/05/2015 9:48]]></name>
    <desc><![CDATA[Vtt descente]]></desc>
    <trkseg>
      <trkpt lat="47.83203" lon="-2.64476">
        <ele>211.3</ele>
        <time>2015-05-13T07:48:45.776Z</time>
      </trkpt>
      <trkpt lat="47.83196" lon="-2.64481">
        <ele>210.1</ele>
        <time>2015-05-13T07:49:00.701Z</time>
      </trkpt>
      <trkpt lat="47.83195" lon="-2.64482">
        <ele>209.4</ele>
        <time>2015-05-13T07:49:01.802Z</time>
      </trkpt>
      <trkpt lat="47.83191" lon="-2.64492">
        <ele>206.3</ele>
        <time>2015-05-13T07:49:07.811Z</time>
      </trkpt>
      <trkpt lat="47.83191" lon="-2.64495">
        <ele>205.6</ele>
        <time>2015-05-13T07:49:08.762Z</time>
      </trkpt>
      <trkpt lat="47.8319" lon="-2.64506">
        <ele>204.5</ele>
        <time>2015-05-13T07:49:12.779Z</time>
      </trkpt>
      <trkpt lat="47.8319" lon="-2.64509">
        <ele>204.1</ele>
        <time>2015-05-13T07:49:13.735Z</time>
      </trkpt>
      <trkpt lat="47.83187" lon="-2.64522">
        <ele>203.3</ele>
        <time>2015-05-13T07:49:19.970Z</time>
      </trkpt>
      <trkpt lat="47.83187" lon="-2.64525">
        <ele>203.1</ele>
        <time>2015-05-13T07:49:20.898Z</time>
      </trkpt>
      <trkpt lat="47.83183" lon="-2.64537">
        <ele>202.4</ele>
        <time>2015-05-13T07:49:28.723Z</time>
      </trkpt>
      <trkpt lat="47.83182" lon="-2.64538">
        <ele>202.1</ele>
        <time>2015-05-13T07:49:29.708Z</time>
      </trkpt>
      <trkpt lat="47.83173" lon="-2.64536">
        <ele>198.5</ele>
        <time>2015-05-13T07:49:35.752Z</time>
      </trkpt>
      <trkpt lat="47.83171" lon="-2.64536">
        <ele>198.1</ele>
        <time>2015-05-13T07:49:36.632Z</time>
      </trkpt>
      <trkpt lat="47.83163" lon="-2.64543">
        <ele>199</ele>
        <time>2015-05-13T07:49:42.021Z</time>
      </trkpt>
      <trkpt lat="47.83163" lon="-2.64543">
        <ele>199</ele>
        <time>2015-05-13T07:49:42.709Z</time>
      </trkpt>
      <trkpt lat="47.83157" lon="-2.64553">
        <ele>197.4</ele>
        <time>2015-05-13T07:49:51.721Z</time>
      </trkpt>
      <trkpt lat="47.83156" lon="-2.64555">
        <ele>197.2</ele>
        <time>2015-05-13T07:49:52.758Z</time>
      </trkpt>
      <trkpt lat="47.83151" lon="-2.64565">
        <ele>197.1</ele>
        <time>2015-05-13T07:49:56.733Z</time>
      </trkpt>
      <trkpt lat="47.8315" lon="-2.64568">
        <ele>197</ele>
        <time>2015-05-13T07:49:57.760Z</time>
      </trkpt>
      <trkpt lat="47.83147" lon="-2.64579">
        <ele>196.9</ele>
        <time>2015-05-13T07:50:02.688Z</time>
      </trkpt>
      <trkpt lat="47.83147" lon="-2.64583">
        <ele>196.6</ele>
        <time>2015-05-13T07:50:03.708Z</time>
      </trkpt>
      <trkpt lat="47.83145" lon="-2.64593">
        <ele>196.4</ele>
        <time>2015-05-13T07:50:06.759Z</time>
      </trkpt>
      <trkpt lat="47.83144" lon="-2.64596">
        <ele>196.3</ele>
        <time>2015-05-13T07:50:07.697Z</time>
      </trkpt>
      <trkpt lat="47.83139" lon="-2.64608">
        <ele>196.3</ele>
        <time>2015-05-13T07:50:11.728Z</time>
      </trkpt>
      <trkpt lat="47.83139" lon="-2.6461">
        <ele>196.3</ele>
        <time>2015-05-13T07:50:12.702Z</time>
      </trkpt>
      <trkpt lat="47.83135" lon="-2.6462">
        <ele>196.8</ele>
        <time>2015-05-13T07:50:18.729Z</time>
      </trkpt>
      <trkpt lat="47.83134" lon="-2.64623">
        <ele>196.9</ele>
        <time>2015-05-13T07:50:19.716Z</time>
      </trkpt>
      <trkpt lat="47.8313" lon="-2.64633">
        <ele>196.7</ele>
        <time>2015-05-13T07:50:23.700Z</time>
      </trkpt>
      <trkpt lat="47.83129" lon="-2.64636">
        <ele>196.8</ele>
        <time>2015-05-13T07:50:24.656Z</time>
      </trkpt>
      <trkpt lat="47.83126" lon="-2.64648">
        <ele>196.4</ele>
        <time>2015-05-13T07:50:29.696Z</time>
      </trkpt>
      <trkpt lat="47.83125" lon="-2.6465">
        <ele>196.9</ele>
        <time>2015-05-13T07:50:30.649Z</time>
      </trkpt>
      <trkpt lat="47.8312" lon="-2.6466">
        <ele>196.9</ele>
        <time>2015-05-13T07:50:34.658Z</time>
      </trkpt>
      <trkpt lat="47.83119" lon="-2.64663">
        <ele>197.1</ele>
        <time>2015-05-13T07:50:35.658Z</time>
      </trkpt>
      <trkpt lat="47.83113" lon="-2.64672">
        <ele>196.1</ele>
        <time>2015-05-13T07:50:40.711Z</time>
      </trkpt>
      <trkpt lat="47.83113" lon="-2.64673">
        <ele>195.9</ele>
        <time>2015-05-13T07:50:41.704Z</time>
      </trkpt>
      <trkpt lat="47.83109" lon="-2.64682">
        <ele>193.8</ele>
        <time>2015-05-13T07:50:45.876Z</time>
      </trkpt>
      <trkpt lat="47.83109" lon="-2.64685">
        <ele>192.9</ele>
        <time>2015-05-13T07:50:46.770Z</time>
      </trkpt>
      <trkpt lat="47.83107" lon="-2.64698">
        <ele>184.1</ele>
        <time>2015-05-13T07:51:00.767Z</time>
      </trkpt>
      <trkpt lat="47.83108" lon="-2.64699">
        <ele>184.7</ele>
        <time>2015-05-13T07:51:01.649Z</time>
      </trkpt>
      <trkpt lat="47.83113" lon="-2.6471">
        <ele>186.4</ele>
        <time>2015-05-13T07:51:10.722Z</time>
      </trkpt>
      <trkpt lat="47.83113" lon="-2.64712">
        <ele>185.9</ele>
        <time>2015-05-13T07:51:11.663Z</time>
      </trkpt>
      <trkpt lat="47.83112" lon="-2.64724">
        <ele>186.8</ele>
        <time>2015-05-13T07:51:15.706Z</time>
      </trkpt>
      <trkpt lat="47.83112" lon="-2.64727">
        <ele>187</ele>
        <time>2015-05-13T07:51:16.692Z</time>
      </trkpt>
      <trkpt lat="47.8311" lon="-2.64736">
        <ele>186.4</ele>
        <time>2015-05-13T07:51:19.731Z</time>
      </trkpt>
      <trkpt lat="47.83109" lon="-2.6474">
        <ele>188.6</ele>
        <time>2015-05-13T07:51:20.686Z</time>
      </trkpt>
      <trkpt lat="47.83107" lon="-2.64751">
        <ele>187.9</ele>
        <time>2015-05-13T07:51:23.691Z</time>
      </trkpt>
      <trkpt lat="47.83106" lon="-2.64754">
        <ele>188.6</ele>
        <time>2015-05-13T07:51:24.728Z</time>
      </trkpt>
      <trkpt lat="47.83104" lon="-2.64765">
        <ele>188.2</ele>
        <time>2015-05-13T07:51:28.702Z</time>
      </trkpt>
      <trkpt lat="47.83103" lon="-2.64767">
        <ele>187.5</ele>
        <time>2015-05-13T07:51:29.687Z</time>
      </trkpt>
      <trkpt lat="47.831" lon="-2.64779">
        <ele>183.9</ele>
        <time>2015-05-13T07:51:33.763Z</time>
      </trkpt>
      <trkpt lat="47.83099" lon="-2.64781">
        <ele>183.8</ele>
        <time>2015-05-13T07:51:34.926Z</time>
      </trkpt>
      <trkpt lat="47.83099" lon="-2.64793">
        <ele>185.9</ele>
        <time>2015-05-13T07:51:40.604Z</time>
      </trkpt>
      <trkpt lat="47.83098" lon="-2.64796">
        <ele>183.2</ele>
        <time>2015-05-13T07:51:41.671Z</time>
      </trkpt>
      <trkpt lat="47.83094" lon="-2.64805">
        <ele>182.8</ele>
        <time>2015-05-13T07:51:44.730Z</time>
      </trkpt>
      <trkpt lat="47.83092" lon="-2.64807">
        <ele>182.4</ele>
        <time>2015-05-13T07:51:45.703Z</time>
      </trkpt>
      <trkpt lat="47.83089" lon="-2.64818">
        <ele>180.1</ele>
        <time>2015-05-13T07:51:52.722Z</time>
      </trkpt>
      <trkpt lat="47.83088" lon="-2.6482">
        <ele>179</ele>
        <time>2015-05-13T07:51:53.786Z</time>
      </trkpt>
      <trkpt lat="47.83081" lon="-2.64826">
        <ele>172.8</ele>
        <time>2015-05-13T07:51:59.660Z</time>
      </trkpt>
      <trkpt lat="47.8308" lon="-2.64828">
        <ele>171.8</ele>
        <time>2015-05-13T07:52:00.848Z</time>
      </trkpt>
      <trkpt lat="47.83076" lon="-2.64839">
        <ele>168.4</ele>
        <time>2015-05-13T07:52:03.729Z</time>
      </trkpt>
      <trkpt lat="47.83075" lon="-2.64844">
        <ele>167.9</ele>
        <time>2015-05-13T07:52:04.669Z</time>
      </trkpt>
      <trkpt lat="47.83072" lon="-2.64854">
        <ele>166.8</ele>
        <time>2015-05-13T07:52:06.710Z</time>
      </trkpt>
      <trkpt lat="47.83072" lon="-2.64858">
        <ele>167</ele>
        <time>2015-05-13T07:52:07.855Z</time>
      </trkpt>
      <trkpt lat="47.83071" lon="-2.64869">
        <ele>168.2</ele>
        <time>2015-05-13T07:52:14.265Z</time>
      </trkpt>
    </trkseg>
  </trk>
</gpx>